sensor_id;sensor_type;location;lat;lon;timestamp;P1;durP1;ratioP1;P2;durP2;ratioP2
65145;SDS011;51730;56.950;24.126;2023-02-01T00:00:25;11.65;;;2.90;;
65145;SDS011;51730;56.950;24.126;2023-02-01T00:02:51;10.90;;;2.72;;
65145;SDS011;51730;56.950;24.126;2023-02-01T00:05:18;6.53;;;2.38;;
65145;SDS011;51730;56.950;24.126;2023-02-01T00:07:46;6.13;;;2.67;;
65145;SDS011;51730;56.950;24.126;2023-02-01T00:10:15;8.50;;;2.63;;
65145;SDS011;51730;56.950;24.126;2023-02-01T00:12:42;5.65;;;2.13;;
65145;SDS011;51730;56.950;24.126;2023-02-01T00:15:09;5.18;;;2.55;;
65145;SDS011;51730;56.950;24.126;2023-02-01T00:17:37;7.88;;;2.60;;
65145;SDS011;51730;56.950;24.126;2023-02-01T00:20:04;9.75;;;2.08;;
65145;SDS011;51730;56.950;24.126;2023-02-01T00:22:31;6.10;;;2.20;;
65145;SDS011;51730;56.950;24.126;2023-02-01T00:24:58;8.35;;;2.83;;
65145;SDS011;51730;56.950;24.126;2023-02-01T00:27:25;4.03;;;2.13;;
65145;SDS011;51730;56.950;24.126;2023-02-01T00:29:53;10.82;;;2.75;;
65145;SDS011;51730;56.950;24.126;2023-02-01T00:32:21;5.10;;;2.47;;
65145;SDS011;51730;56.950;24.126;2023-02-01T00:34:48;4.43;;;2.80;;
65145;SDS011;51730;56.950;24.126;2023-02-01T00:37:15;5.82;;;2.80;;
65145;SDS011;51730;56.950;24.126;2023-02-01T00:39:42;6.05;;;2.45;;
65145;SDS011;51730;56.950;24.126;2023-02-01T00:42:09;6.13;;;2.50;;
65145;SDS011;51730;56.950;24.126;2023-02-01T00:44:36;7.35;;;2.25;;
65145;SDS011;51730;56.950;24.126;2023-02-01T00:47:03;6.88;;;2.85;;
65145;SDS011;51730;56.950;24.126;2023-02-01T00:49:30;3.67;;;2.28;;
65145;SDS011;51730;56.950;24.126;2023-02-01T00:51:57;21.40;;;8.57;;
65145;SDS011;51730;56.950;24.126;2023-02-01T00:54:23;13.27;;;5.25;;
65145;SDS011;51730;56.950;24.126;2023-02-01T00:56:50;9.07;;;3.80;;
65145;SDS011;51730;56.950;24.126;2023-02-01T00:59:17;8.25;;;2.65;;
65145;SDS011;51730;56.950;24.126;2023-02-01T01:01:44;6.82;;;2.80;;
65145;SDS011;51730;56.950;24.126;2023-02-01T01:04:11;6.50;;;3.40;;
65145;SDS011;51730;56.950;24.126;2023-02-01T01:06:38;6.78;;;3.35;;
65145;SDS011;51730;56.950;24.126;2023-02-01T01:09:06;6.28;;;2.72;;
65145;SDS011;51730;56.950;24.126;2023-02-01T01:11:35;8.45;;;2.97;;
65145;SDS011;51730;56.950;24.126;2023-02-01T01:14:03;6.20;;;2.70;;
65145;SDS011;51730;56.950;24.126;2023-02-01T01:16:32;3.72;;;2.30;;
65145;SDS011;51730;56.950;24.126;2023-02-01T01:18:59;5.53;;;3.03;;
65145;SDS011;51730;56.950;24.126;2023-02-01T01:21:27;5.85;;;2.67;;
65145;SDS011;51730;56.950;24.126;2023-02-01T01:23:54;10.05;;;2.83;;
65145;SDS011;51730;56.950;24.126;2023-02-01T01:26:23;7.53;;;3.33;;
65145;SDS011;51730;56.950;24.126;2023-02-01T01:28:51;9.15;;;3.28;;
65145;SDS011;51730;56.950;24.126;2023-02-01T01:31:20;9.70;;;3.50;;
65145;SDS011;51730;56.950;24.126;2023-02-01T01:33:48;8.55;;;3.13;;
65145;SDS011;51730;56.950;24.126;2023-02-01T01:36:17;10.15;;;3.53;;
65145;SDS011;51730;56.950;24.126;2023-02-01T01:38:44;6.82;;;3.28;;
65145;SDS011;51730;56.950;24.126;2023-02-01T01:41:13;8.95;;;3.67;;
65145;SDS011;51730;56.950;24.126;2023-02-01T01:46:28;5.63;;;2.55;;
65145;SDS011;51730;56.950;24.126;2023-02-01T01:49:19;9.18;;;3.25;;
65145;SDS011;51730;56.950;24.126;2023-02-01T01:51:54;5.40;;;2.75;;
65145;SDS011;51730;56.950;24.126;2023-02-01T01:54:32;8.52;;;2.65;;
65145;SDS011;51730;56.950;24.126;2023-02-01T01:57:06;5.82;;;2.53;;
65145;SDS011;51730;56.950;24.126;2023-02-01T01:59:38;3.75;;;2.33;;
65145;SDS011;51730;56.950;24.126;2023-02-01T02:02:07;5.10;;;2.25;;
65145;SDS011;51730;56.950;24.126;2023-02-01T02:04:35;4.93;;;2.45;;
65145;SDS011;51730;56.950;24.126;2023-02-01T02:07:14;4.13;;;2.40;;
65145;SDS011;51730;56.950;24.126;2023-02-01T02:09:46;6.15;;;3.00;;
65145;SDS011;51730;56.950;24.126;2023-02-01T02:12:26;5.50;;;2.45;;
65145;SDS011;51730;56.950;24.126;2023-02-01T02:14:53;5.50;;;2.47;;
65145;SDS011;51730;56.950;24.126;2023-02-01T02:32:03;6.73;;;3.10;;
65145;SDS011;51730;56.950;24.126;2023-02-01T02:34:57;6.25;;;3.15;;
65145;SDS011;51730;56.950;24.126;2023-02-01T02:43:10;7.10;;;3.67;;
65145;SDS011;51730;56.950;24.126;2023-02-01T02:46:05;7.10;;;3.72;;
65145;SDS011;51730;56.950;24.126;2023-02-01T02:51:58;7.15;;;3.47;;
65145;SDS011;51730;56.950;24.126;2023-02-01T02:54:58;7.03;;;3.75;;
65145;SDS011;51730;56.950;24.126;2023-02-01T02:57:32;7.38;;;3.28;;
65145;SDS011;51730;56.950;24.126;2023-02-01T03:00:22;5.03;;;3.25;;
65145;SDS011;51730;56.950;24.126;2023-02-01T03:03:12;6.60;;;3.50;;
65145;SDS011;51730;56.950;24.126;2023-02-01T03:05:58;7.95;;;4.38;;
65145;SDS011;51730;56.950;24.126;2023-02-01T03:08:27;9.05;;;4.53;;
65145;SDS011;51730;56.950;24.126;2023-02-01T03:16:31;6.03;;;4.53;;
65145;SDS011;51730;56.950;24.126;2023-02-01T03:19:06;8.18;;;4.65;;
65145;SDS011;51730;56.950;24.126;2023-02-01T03:24:40;6.45;;;4.65;;
65145;SDS011;51730;56.950;24.126;2023-02-01T03:29:43;6.38;;;4.38;;
65145;SDS011;51730;56.950;24.126;2023-02-01T03:32:17;8.32;;;4.30;;
65145;SDS011;51730;56.950;24.126;2023-02-01T03:34:44;14.27;;;6.78;;
65145;SDS011;51730;56.950;24.126;2023-02-01T03:37:16;7.72;;;5.30;;
65145;SDS011;51730;56.950;24.126;2023-02-01T03:39:53;6.43;;;4.63;;
65145;SDS011;51730;56.950;24.126;2023-02-01T03:42:28;11.80;;;4.90;;
65145;SDS011;51730;56.950;24.126;2023-02-01T03:45:05;7.18;;;4.93;;
65145;SDS011;51730;56.950;24.126;2023-02-01T03:47:40;6.25;;;4.50;;
65145;SDS011;51730;56.950;24.126;2023-02-01T03:50:12;7.25;;;4.25;;
65145;SDS011;51730;56.950;24.126;2023-02-01T03:52:59;9.25;;;4.88;;
65145;SDS011;51730;56.950;24.126;2023-02-01T03:55:36;9.23;;;4.90;;
65145;SDS011;51730;56.950;24.126;2023-02-01T04:00:45;10.82;;;4.65;;
65145;SDS011;51730;56.950;24.126;2023-02-01T04:03:23;9.68;;;4.75;;
65145;SDS011;51730;56.950;24.126;2023-02-01T04:05:51;8.02;;;4.90;;
65145;SDS011;51730;56.950;24.126;2023-02-01T04:08:19;7.38;;;4.93;;
65145;SDS011;51730;56.950;24.126;2023-02-01T04:10:47;11.38;;;5.53;;
65145;SDS011;51730;56.950;24.126;2023-02-01T04:13:13;8.90;;;5.15;;
65145;SDS011;51730;56.950;24.126;2023-02-01T04:15:40;10.95;;;5.53;;
65145;SDS011;51730;56.950;24.126;2023-02-01T04:18:08;8.65;;;5.43;;
65145;SDS011;51730;56.950;24.126;2023-02-01T04:20:35;11.27;;;5.80;;
65145;SDS011;51730;56.950;24.126;2023-02-01T04:23:02;10.98;;;5.68;;
65145;SDS011;51730;56.950;24.126;2023-02-01T04:25:29;10.38;;;6.13;;
65145;SDS011;51730;56.950;24.126;2023-02-01T04:27:56;10.07;;;5.22;;
65145;SDS011;51730;56.950;24.126;2023-02-01T04:30:23;9.32;;;5.20;;
65145;SDS011;51730;56.950;24.126;2023-02-01T04:32:50;7.63;;;5.50;;
65145;SDS011;51730;56.950;24.126;2023-02-01T04:35:17;11.50;;;5.35;;
65145;SDS011;51730;56.950;24.126;2023-02-01T04:37:44;9.05;;;5.53;;
65145;SDS011;51730;56.950;24.126;2023-02-01T04:40:11;10.45;;;5.22;;
65145;SDS011;51730;56.950;24.126;2023-02-01T04:42:38;9.95;;;5.60;;
65145;SDS011;51730;56.950;24.126;2023-02-01T04:45:05;8.25;;;5.10;;
65145;SDS011;51730;56.950;24.126;2023-02-01T04:47:33;9.40;;;5.72;;
65145;SDS011;51730;56.950;24.126;2023-02-01T04:50:00;10.27;;;5.65;;
65145;SDS011;51730;56.950;24.126;2023-02-01T04:52:27;10.40;;;5.70;;
65145;SDS011;51730;56.950;24.126;2023-02-01T04:54:54;10.68;;;5.63;;
65145;SDS011;51730;56.950;24.126;2023-02-01T04:57:24;9.52;;;5.80;;
65145;SDS011;51730;56.950;24.126;2023-02-01T04:59:51;11.85;;;5.95;;
65145;SDS011;51730;56.950;24.126;2023-02-01T05:02:18;12.02;;;6.00;;
65145;SDS011;51730;56.950;24.126;2023-02-01T05:04:45;11.02;;;5.88;;
65145;SDS011;51730;56.950;24.126;2023-02-01T05:07:12;9.82;;;5.65;;
65145;SDS011;51730;56.950;24.126;2023-02-01T05:09:39;11.57;;;5.88;;
65145;SDS011;51730;56.950;24.126;2023-02-01T05:12:06;13.35;;;6.13;;
65145;SDS011;51730;56.950;24.126;2023-02-01T05:14:52;16.55;;;6.90;;
65145;SDS011;51730;56.950;24.126;2023-02-01T05:17:19;12.98;;;5.82;;
65145;SDS011;51730;56.950;24.126;2023-02-01T05:19:46;9.85;;;6.25;;
65145;SDS011;51730;56.950;24.126;2023-02-01T05:22:14;12.32;;;6.95;;
65145;SDS011;51730;56.950;24.126;2023-02-01T05:24:41;9.98;;;6.40;;
65145;SDS011;51730;56.950;24.126;2023-02-01T05:27:08;9.90;;;6.13;;
65145;SDS011;51730;56.950;24.126;2023-02-01T05:29:35;10.15;;;6.22;;
65145;SDS011;51730;56.950;24.126;2023-02-01T05:32:02;12.57;;;6.35;;
65145;SDS011;51730;56.950;24.126;2023-02-01T05:34:47;12.82;;;6.43;;
65145;SDS011;51730;56.950;24.126;2023-02-01T05:37:13;15.23;;;6.97;;
65145;SDS011;51730;56.950;24.126;2023-02-01T05:39:40;18.02;;;9.13;;
65145;SDS011;51730;56.950;24.126;2023-02-01T05:42:07;13.02;;;7.10;;
65145;SDS011;51730;56.950;24.126;2023-02-01T05:44:34;14.57;;;7.07;;
65145;SDS011;51730;56.950;24.126;2023-02-01T05:47:01;11.95;;;6.85;;
65145;SDS011;51730;56.950;24.126;2023-02-01T05:49:28;16.30;;;6.95;;
65145;SDS011;51730;56.950;24.126;2023-02-01T05:51:55;12.38;;;6.57;;
65145;SDS011;51730;56.950;24.126;2023-02-01T05:54:25;11.02;;;6.30;;
65145;SDS011;51730;56.950;24.126;2023-02-01T05:56:52;11.60;;;6.30;;
65145;SDS011;51730;56.950;24.126;2023-02-01T05:59:19;12.93;;;6.70;;
65145;SDS011;51730;56.950;24.126;2023-02-01T06:01:46;12.20;;;6.03;;
65145;SDS011;51730;56.950;24.126;2023-02-01T06:04:13;10.65;;;5.93;;
65145;SDS011;51730;56.950;24.126;2023-02-01T06:06:40;16.33;;;7.00;;
65145;SDS011;51730;56.950;24.126;2023-02-01T06:09:07;11.27;;;6.13;;
65145;SDS011;51730;56.950;24.126;2023-02-01T06:11:33;14.25;;;5.93;;
65145;SDS011;51730;56.950;24.126;2023-02-01T06:14:00;13.98;;;6.45;;
65145;SDS011;51730;56.950;24.126;2023-02-01T06:16:27;12.43;;;6.90;;
65145;SDS011;51730;56.950;24.126;2023-02-01T06:18:54;12.57;;;6.68;;
65145;SDS011;51730;56.950;24.126;2023-02-01T06:21:21;15.27;;;5.90;;
65145;SDS011;51730;56.950;24.126;2023-02-01T06:23:51;12.25;;;6.40;;
65145;SDS011;51730;56.950;24.126;2023-02-01T06:26:19;14.25;;;7.35;;
65145;SDS011;51730;56.950;24.126;2023-02-01T06:28:47;14.75;;;5.80;;
65145;SDS011;51730;56.950;24.126;2023-02-01T06:31:13;12.93;;;5.82;;
65145;SDS011;51730;56.950;24.126;2023-02-01T06:33:41;13.23;;;6.85;;
65145;SDS011;51730;56.950;24.126;2023-02-01T06:36:09;23.52;;;7.15;;
65145;SDS011;51730;56.950;24.126;2023-02-01T06:38:38;9.18;;;5.07;;
65145;SDS011;51730;56.950;24.126;2023-02-01T06:41:05;9.20;;;5.22;;
65145;SDS011;51730;56.950;24.126;2023-02-01T06:43:32;11.77;;;5.85;;
65145;SDS011;51730;56.950;24.126;2023-02-01T06:46:00;14.25;;;6.22;;
65145;SDS011;51730;56.950;24.126;2023-02-01T06:48:29;19.88;;;7.15;;
65145;SDS011;51730;56.950;24.126;2023-02-01T06:50:56;13.93;;;7.38;;
65145;SDS011;51730;56.950;24.126;2023-02-01T06:53:23;20.17;;;9.23;;
65145;SDS011;51730;56.950;24.126;2023-02-01T06:55:57;17.77;;;8.82;;
65145;SDS011;51730;56.950;24.126;2023-02-01T06:58:29;19.88;;;8.80;;
65145;SDS011;51730;56.950;24.126;2023-02-01T07:00:58;16.58;;;7.50;;
65145;SDS011;51730;56.950;24.126;2023-02-01T07:03:31;14.60;;;7.18;;
65145;SDS011;51730;56.950;24.126;2023-02-01T07:05:58;16.02;;;7.78;;
65145;SDS011;51730;56.950;24.126;2023-02-01T07:08:26;15.55;;;8.68;;
65145;SDS011;51730;56.950;24.126;2023-02-01T07:10:54;14.52;;;7.82;;
65145;SDS011;51730;56.950;24.126;2023-02-01T07:13:21;21.13;;;10.05;;
65145;SDS011;51730;56.950;24.126;2023-02-01T07:15:48;21.92;;;11.13;;
65145;SDS011;51730;56.950;24.126;2023-02-01T07:18:15;23.17;;;11.63;;
65145;SDS011;51730;56.950;24.126;2023-02-01T07:20:42;14.85;;;8.07;;
65145;SDS011;51730;56.950;24.126;2023-02-01T07:23:09;17.75;;;8.10;;
65145;SDS011;51730;56.950;24.126;2023-02-01T07:25:37;14.18;;;7.38;;
65145;SDS011;51730;56.950;24.126;2023-02-01T07:28:04;15.32;;;7.28;;
65145;SDS011;51730;56.950;24.126;2023-02-01T07:30:31;15.73;;;7.30;;
65145;SDS011;51730;56.950;24.126;2023-02-01T07:32:58;15.73;;;7.72;;
65145;SDS011;51730;56.950;24.126;2023-02-01T07:35:28;15.50;;;7.35;;
65145;SDS011;51730;56.950;24.126;2023-02-01T07:37:58;14.10;;;7.30;;
65145;SDS011;51730;56.950;24.126;2023-02-01T07:40:25;15.80;;;8.32;;
65145;SDS011;51730;56.950;24.126;2023-02-01T07:42:55;16.67;;;8.05;;
65145;SDS011;51730;56.950;24.126;2023-02-01T07:45:22;19.27;;;8.32;;
65145;SDS011;51730;56.950;24.126;2023-02-01T07:47:51;15.00;;;8.20;;
65145;SDS011;51730;56.950;24.126;2023-02-01T07:50:19;16.20;;;9.27;;
65145;SDS011;51730;56.950;24.126;2023-02-01T07:52:47;16.00;;;8.50;;
65145;SDS011;51730;56.950;24.126;2023-02-01T07:55:13;16.85;;;9.43;;
65145;SDS011;51730;56.950;24.126;2023-02-01T07:57:40;20.52;;;9.13;;
65145;SDS011;51730;56.950;24.126;2023-02-01T08:00:08;18.65;;;8.55;;
65145;SDS011;51730;56.950;24.126;2023-02-01T08:02:54;18.15;;;8.57;;
65145;SDS011;51730;56.950;24.126;2023-02-01T08:05:23;15.18;;;8.27;;
65145;SDS011;51730;56.950;24.126;2023-02-01T08:07:50;14.50;;;8.27;;
65145;SDS011;51730;56.950;24.126;2023-02-01T08:10:17;18.35;;;8.55;;
65145;SDS011;51730;56.950;24.126;2023-02-01T08:12:45;15.00;;;7.63;;
65145;SDS011;51730;56.950;24.126;2023-02-01T08:15:17;17.88;;;8.88;;
65145;SDS011;51730;56.950;24.126;2023-02-01T08:17:48;18.08;;;8.80;;
65145;SDS011;51730;56.950;24.126;2023-02-01T08:20:16;21.30;;;9.95;;
65145;SDS011;51730;56.950;24.126;2023-02-01T08:22:44;13.80;;;8.10;;
65145;SDS011;51730;56.950;24.126;2023-02-01T08:25:11;16.85;;;9.20;;
65145;SDS011;51730;56.950;24.126;2023-02-01T08:27:38;22.33;;;8.98;;
65145;SDS011;51730;56.950;24.126;2023-02-01T08:30:05;18.17;;;8.82;;
65145;SDS011;51730;56.950;24.126;2023-02-01T08:32:33;25.33;;;11.88;;
65145;SDS011;51730;56.950;24.126;2023-02-01T08:35:02;23.27;;;10.80;;
65145;SDS011;51730;56.950;24.126;2023-02-01T08:37:32;18.67;;;9.57;;
65145;SDS011;51730;56.950;24.126;2023-02-01T08:39:59;18.02;;;9.55;;
65145;SDS011;51730;56.950;24.126;2023-02-01T08:42:27;17.23;;;9.35;;
65145;SDS011;51730;56.950;24.126;2023-02-01T08:45:12;18.15;;;9.80;;
65145;SDS011;51730;56.950;24.126;2023-02-01T08:47:40;18.17;;;9.23;;
65145;SDS011;51730;56.950;24.126;2023-02-01T08:50:07;24.70;;;10.32;;
65145;SDS011;51730;56.950;24.126;2023-02-01T08:52:34;18.17;;;11.13;;
65145;SDS011;51730;56.950;24.126;2023-02-01T08:55:03;22.20;;;11.52;;
65145;SDS011;51730;56.950;24.126;2023-02-01T08:57:32;18.98;;;10.25;;
65145;SDS011;51730;56.950;24.126;2023-02-01T08:59:59;21.92;;;11.32;;
65145;SDS011;51730;56.950;24.126;2023-02-01T09:02:27;21.08;;;12.45;;
65145;SDS011;51730;56.950;24.126;2023-02-01T09:04:55;26.58;;;13.48;;
65145;SDS011;51730;56.950;24.126;2023-02-01T09:07:25;30.42;;;15.23;;
65145;SDS011;51730;56.950;24.126;2023-02-01T09:09:52;28.88;;;15.23;;
65145;SDS011;51730;56.950;24.126;2023-02-01T09:12:20;28.48;;;15.23;;
65145;SDS011;51730;56.950;24.126;2023-02-01T09:14:48;23.33;;;13.13;;
65145;SDS011;51730;56.950;24.126;2023-02-01T09:17:15;23.67;;;12.38;;
65145;SDS011;51730;56.950;24.126;2023-02-01T09:19:42;29.27;;;15.23;;
65145;SDS011;51730;56.950;24.126;2023-02-01T09:22:09;29.30;;;14.98;;
65145;SDS011;51730;56.950;24.126;2023-02-01T09:24:36;22.75;;;12.68;;
65145;SDS011;51730;56.950;24.126;2023-02-01T09:27:03;25.83;;;13.27;;
65145;SDS011;51730;56.950;24.126;2023-02-01T09:29:30;30.42;;;15.95;;
65145;SDS011;51730;56.950;24.126;2023-02-01T09:31:57;27.40;;;14.23;;
65145;SDS011;51730;56.950;24.126;2023-02-01T09:34:29;25.88;;;12.43;;
65145;SDS011;51730;56.950;24.126;2023-02-01T09:36:57;22.45;;;12.43;;
65145;SDS011;51730;56.950;24.126;2023-02-01T09:39:24;31.15;;;14.60;;
65145;SDS011;51730;56.950;24.126;2023-02-01T09:41:59;37.92;;;16.73;;
65145;SDS011;51730;56.950;24.126;2023-02-01T09:44:56;27.77;;;12.00;;
65145;SDS011;51730;56.950;24.126;2023-02-01T09:47:32;23.15;;;12.93;;
65145;SDS011;51730;56.950;24.126;2023-02-01T09:50:06;23.42;;;11.80;;
65145;SDS011;51730;56.950;24.126;2023-02-01T09:55:28;31.08;;;13.07;;
65145;SDS011;51730;56.950;24.126;2023-02-01T10:00:50;27.05;;;13.35;;
65145;SDS011;51730;56.950;24.126;2023-02-01T10:03:19;30.52;;;14.25;;
65145;SDS011;51730;56.950;24.126;2023-02-01T10:11:39;24.20;;;13.27;;
65145;SDS011;51730;56.950;24.126;2023-02-01T10:15:09;29.10;;;13.23;;
65145;SDS011;51730;56.950;24.126;2023-02-01T10:17:53;26.23;;;13.07;;
65145;SDS011;51730;56.950;24.126;2023-02-01T10:26:01;28.25;;;14.13;;
65145;SDS011;51730;56.950;24.126;2023-02-01T10:28:37;28.90;;;16.05;;
65145;SDS011;51730;56.950;24.126;2023-02-01T10:31:05;28.15;;;14.48;;
65145;SDS011;51730;56.950;24.126;2023-02-01T10:33:42;27.58;;;14.40;;
65145;SDS011;51730;56.950;24.126;2023-02-01T10:39:10;22.98;;;14.43;;
65145;SDS011;51730;56.950;24.126;2023-02-01T10:41:40;29.20;;;15.95;;
65145;SDS011;51730;56.950;24.126;2023-02-01T10:44:16;26.20;;;15.43;;
65145;SDS011;51730;56.950;24.126;2023-02-01T10:46:45;34.53;;;17.13;;
65145;SDS011;51730;56.950;24.126;2023-02-01T10:51:53;39.10;;;18.33;;
65145;SDS011;51730;56.950;24.126;2023-02-01T10:54:36;37.10;;;16.63;;
65145;SDS011;51730;56.950;24.126;2023-02-01T10:57:09;32.00;;;16.05;;
65145;SDS011;51730;56.950;24.126;2023-02-01T10:59:52;34.70;;;17.63;;
65145;SDS011;51730;56.950;24.126;2023-02-01T11:05:15;38.08;;;17.85;;
65145;SDS011;51730;56.950;24.126;2023-02-01T11:07:54;34.95;;;17.27;;
65145;SDS011;51730;56.950;24.126;2023-02-01T11:10:38;42.78;;;18.67;;
65145;SDS011;51730;56.950;24.126;2023-02-01T11:13:11;35.10;;;17.77;;
65145;SDS011;51730;56.950;24.126;2023-02-01T11:15:45;46.75;;;20.45;;
65145;SDS011;51730;56.950;24.126;2023-02-01T11:18:26;38.42;;;18.55;;
65145;SDS011;51730;56.950;24.126;2023-02-01T11:20:55;39.42;;;19.05;;
65145;SDS011;51730;56.950;24.126;2023-02-01T11:23:23;42.75;;;18.50;;
65145;SDS011;51730;56.950;24.126;2023-02-01T11:25:57;37.42;;;18.48;;
65145;SDS011;51730;56.950;24.126;2023-02-01T11:28:32;43.55;;;22.17;;
65145;SDS011;51730;56.950;24.126;2023-02-01T11:31:02;48.58;;;23.52;;
65145;SDS011;51730;56.950;24.126;2023-02-01T11:33:31;57.92;;;26.95;;
65145;SDS011;51730;56.950;24.126;2023-02-01T11:36:07;63.05;;;31.13;;
65145;SDS011;51730;56.950;24.126;2023-02-01T11:38:37;60.50;;;28.73;;
65145;SDS011;51730;56.950;24.126;2023-02-01T11:41:11;64.13;;;29.88;;
65145;SDS011;51730;56.950;24.126;2023-02-01T11:43:38;54.10;;;27.23;;
65145;SDS011;51730;56.950;24.126;2023-02-01T11:46:18;55.63;;;26.00;;
65145;SDS011;51730;56.950;24.126;2023-02-01T11:48:52;58.10;;;27.20;;
65145;SDS011;51730;56.950;24.126;2023-02-01T11:54:29;58.55;;;26.85;;
65145;SDS011;51730;56.950;24.126;2023-02-01T12:00:36;46.92;;;23.38;;
65145;SDS011;51730;56.950;24.126;2023-02-01T12:03:28;49.78;;;23.52;;
65145;SDS011;51730;56.950;24.126;2023-02-01T12:28:14;37.90;;;19.10;;
65145;SDS011;51730;56.950;24.126;2023-02-01T12:30:51;32.00;;;17.30;;
65145;SDS011;51730;56.950;24.126;2023-02-01T12:39:22;34.95;;;18.23;;
65145;SDS011;51730;56.950;24.126;2023-02-01T12:41:57;36.70;;;19.10;;
65145;SDS011;51730;56.950;24.126;2023-02-01T12:47:22;34.85;;;16.33;;
65145;SDS011;51730;56.950;24.126;2023-02-01T12:52:37;33.55;;;16.63;;
65145;SDS011;51730;56.950;24.126;2023-02-01T12:55:32;35.88;;;18.40;;
65145;SDS011;51730;56.950;24.126;2023-02-01T13:00:41;34.20;;;17.85;;
65145;SDS011;51730;56.950;24.126;2023-02-01T13:06:19;35.63;;;16.75;;
65145;SDS011;51730;56.950;24.126;2023-02-01T13:11:39;25.45;;;13.00;;
65145;SDS011;51730;56.950;24.126;2023-02-01T13:17:02;27.90;;;14.43;;
65145;SDS011;51730;56.950;24.126;2023-02-01T13:19:44;25.00;;;13.48;;
65145;SDS011;51730;56.950;24.126;2023-02-01T13:22:16;27.40;;;14.77;;
65145;SDS011;51730;56.950;24.126;2023-02-01T13:24:51;29.15;;;15.35;;
65145;SDS011;51730;56.950;24.126;2023-02-01T13:27:19;32.92;;;16.05;;
65145;SDS011;51730;56.950;24.126;2023-02-01T13:30:06;32.05;;;16.88;;
65145;SDS011;51730;56.950;24.126;2023-02-01T13:38:33;45.90;;;21.88;;
65145;SDS011;51730;56.950;24.126;2023-02-01T13:43:33;47.80;;;23.17;;
65145;SDS011;51730;56.950;24.126;2023-02-01T13:46:07;42.28;;;22.92;;
65145;SDS011;51730;56.950;24.126;2023-02-01T13:48:39;48.55;;;22.35;;
65145;SDS011;51730;56.950;24.126;2023-02-01T13:51:15;38.35;;;19.85;;
65145;SDS011;51730;56.950;24.126;2023-02-01T13:53:58;40.72;;;20.77;;
65145;SDS011;51730;56.950;24.126;2023-02-01T13:56:26;54.17;;;23.42;;
65145;SDS011;51730;56.950;24.126;2023-02-01T13:58:54;45.47;;;22.98;;
65145;SDS011;51730;56.950;24.126;2023-02-01T14:03:49;49.40;;;22.73;;
65145;SDS011;51730;56.950;24.126;2023-02-01T14:16:44;47.92;;;21.38;;
65145;SDS011;51730;56.950;24.126;2023-02-01T14:19:33;38.78;;;20.55;;
65145;SDS011;51730;56.950;24.126;2023-02-01T14:22:31;37.88;;;17.55;;
65145;SDS011;51730;56.950;24.126;2023-02-01T14:25:00;34.90;;;17.42;;
65145;SDS011;51730;56.950;24.126;2023-02-01T14:27:28;38.15;;;16.48;;
65145;SDS011;51730;56.950;24.126;2023-02-01T14:30:02;37.72;;;19.38;;
65145;SDS011;51730;56.950;24.126;2023-02-01T14:32:34;26.95;;;13.88;;
65145;SDS011;51730;56.950;24.126;2023-02-01T14:35:17;30.52;;;14.52;;
65145;SDS011;51730;56.950;24.126;2023-02-01T14:37:50;28.00;;;12.80;;
65145;SDS011;51730;56.950;24.126;2023-02-01T14:40:26;24.75;;;13.05;;
65145;SDS011;51730;56.950;24.126;2023-02-01T14:42:54;21.60;;;11.07;;
65145;SDS011;51730;56.950;24.126;2023-02-01T14:50:34;17.58;;;9.93;;
65145;SDS011;51730;56.950;24.126;2023-02-01T14:58:06;19.23;;;11.05;;
65145;SDS011;51730;56.950;24.126;2023-02-01T15:00:53;27.83;;;14.27;;
65145;SDS011;51730;56.950;24.126;2023-02-01T15:09:12;35.83;;;18.35;;
65145;SDS011;51730;56.950;24.126;2023-02-01T15:12:00;43.28;;;22.25;;
65145;SDS011;51730;56.950;24.126;2023-02-01T15:14:39;56.83;;;25.90;;
65145;SDS011;51730;56.950;24.126;2023-02-01T15:17:19;42.70;;;20.75;;
65145;SDS011;51730;56.950;24.126;2023-02-01T15:19:54;41.38;;;18.45;;
65145;SDS011;51730;56.950;24.126;2023-02-01T15:22:23;33.35;;;16.52;;
65145;SDS011;51730;56.950;24.126;2023-02-01T15:24:54;35.05;;;16.58;;
65145;SDS011;51730;56.950;24.126;2023-02-01T15:27:23;34.17;;;18.02;;
65145;SDS011;51730;56.950;24.126;2023-02-01T15:29:51;35.95;;;16.20;;
65145;SDS011;51730;56.950;24.126;2023-02-01T15:32:28;30.77;;;16.35;;
65145;SDS011;51730;56.950;24.126;2023-02-01T15:34:59;41.80;;;20.30;;
65145;SDS011;51730;56.950;24.126;2023-02-01T15:37:27;31.92;;;15.73;;
65145;SDS011;51730;56.950;24.126;2023-02-01T15:42:39;30.83;;;15.85;;
65145;SDS011;51730;56.950;24.126;2023-02-01T15:45:25;28.50;;;14.40;;
65145;SDS011;51730;56.950;24.126;2023-02-01T15:47:55;32.25;;;16.02;;
65145;SDS011;51730;56.950;24.126;2023-02-01T15:50:23;31.48;;;15.63;;
65145;SDS011;51730;56.950;24.126;2023-02-01T15:52:52;30.20;;;16.80;;
65145;SDS011;51730;56.950;24.126;2023-02-01T15:55:23;38.60;;;19.10;;
65145;SDS011;51730;56.950;24.126;2023-02-01T15:58:08;35.83;;;17.70;;
65145;SDS011;51730;56.950;24.126;2023-02-01T16:00:49;30.05;;;15.57;;
65145;SDS011;51730;56.950;24.126;2023-02-01T16:03:32;28.20;;;15.07;;
65145;SDS011;51730;56.950;24.126;2023-02-01T16:06:06;23.83;;;13.32;;
65145;SDS011;51730;56.950;24.126;2023-02-01T16:08:35;30.90;;;15.73;;
65145;SDS011;51730;56.950;24.126;2023-02-01T16:13:36;29.85;;;15.60;;
65145;SDS011;51730;56.950;24.126;2023-02-01T16:16:03;25.05;;;14.27;;
65145;SDS011;51730;56.950;24.126;2023-02-01T16:18:34;28.10;;;14.77;;
65145;SDS011;51730;56.950;24.126;2023-02-01T16:21:02;28.58;;;14.60;;
65145;SDS011;51730;56.950;24.126;2023-02-01T16:23:29;39.60;;;18.73;;
65145;SDS011;51730;56.950;24.126;2023-02-01T16:25:57;37.97;;;19.75;;
65145;SDS011;51730;56.950;24.126;2023-02-01T16:28:24;46.33;;;24.90;;
65145;SDS011;51730;56.950;24.126;2023-02-01T16:30:52;51.63;;;26.75;;
65145;SDS011;51730;56.950;24.126;2023-02-01T16:33:19;46.60;;;27.52;;
65145;SDS011;51730;56.950;24.126;2023-02-01T16:35:49;42.75;;;24.08;;
65145;SDS011;51730;56.950;24.126;2023-02-01T16:38:17;44.42;;;22.27;;
65145;SDS011;51730;56.950;24.126;2023-02-01T16:40:47;45.22;;;21.63;;
65145;SDS011;51730;56.950;24.126;2023-02-01T16:45:44;40.63;;;19.70;;
65145;SDS011;51730;56.950;24.126;2023-02-01T16:50:52;34.38;;;17.40;;
65145;SDS011;51730;56.950;24.126;2023-02-01T16:53:22;31.60;;;17.23;;
65145;SDS011;51730;56.950;24.126;2023-02-01T16:55:50;26.40;;;13.27;;
65145;SDS011;51730;56.950;24.126;2023-02-01T16:58:19;33.85;;;16.27;;
65145;SDS011;51730;56.950;24.126;2023-02-01T17:00:47;28.77;;;16.08;;
65145;SDS011;51730;56.950;24.126;2023-02-01T17:03:14;28.92;;;15.25;;
65145;SDS011;51730;56.950;24.126;2023-02-01T17:05:47;29.67;;;14.77;;
65145;SDS011;51730;56.950;24.126;2023-02-01T17:08:25;25.88;;;13.48;;
65145;SDS011;51730;56.950;24.126;2023-02-01T17:11:00;23.08;;;13.18;;
65145;SDS011;51730;56.950;24.126;2023-02-01T17:13:28;25.50;;;14.43;;
65145;SDS011;51730;56.950;24.126;2023-02-01T17:15:59;24.77;;;13.55;;
65145;SDS011;51730;56.950;24.126;2023-02-01T17:18:33;27.45;;;13.65;;
65145;SDS011;51730;56.950;24.126;2023-02-01T17:21:01;25.10;;;12.98;;
65145;SDS011;51730;56.950;24.126;2023-02-01T17:23:30;25.30;;;13.88;;
65145;SDS011;51730;56.950;24.126;2023-02-01T17:25:58;24.52;;;13.55;;